Time;durP1;ratioP1;P1;durP2;ratioP2;P2;SDS_P1;SDS_P2;PMS_P1;PMS_P2;Temp;Humidity;BMP_temperature;BMP_pressure;BME280_temperature;BME280_humidity;BME280_pressure;Samples;Min_cycle;Max_cycle;Signal;HPM_P1;HPM_P2
2022/06/26 00:00:22;;;;;;;11.18;7.20;;;;;;;18.96;89.10;101209.22;5012281;28;20084;-64
2022/06/26 00:02:47;;;;;;;10.43;7.00;;;;;;;18.93;89.47;101204.03;5010065;28;20395;-64
2022/06/26 00:05:13;;;;;;;8.35;7.35;;;;;;;18.95;89.31;101215.31;5013977;28;20054;-64
2022/06/26 00:07:39;;;;;;;8.98;7.93;;;;;;;18.97;90.01;101224.00;5013711;28;20030;-64
2022/06/26 00:10:06;;;;;;;8.45;7.60;;;;;;;19.03;89.63;101237.03;5011694;28;20053;-64
2022/06/26 00:12:32;;;;;;;9.15;7.93;;;;;;;18.95;89.92;101230.09;5011923;28;20033;-64
2022/06/26 00:14:57;;;;;;;9.57;8.38;;;;;;;18.99;89.66;101226.63;5013196;28;20475;-64
2022/06/26 00:17:22;;;;;;;8.70;7.90;;;;;;;18.91;89.92;101220.53;5014761;28;20071;-64
2022/06/26 00:19:48;;;;;;;9.75;8.85;;;;;;;18.94;89.66;101221.41;5014418;28;20026;-64
2022/06/26 00:22:13;;;;;;;10.18;8.55;;;;;;;18.85;90.29;101228.34;5011659;28;20022;-64
2022/06/26 00:24:41;;;;;;;9.40;8.50;;;;;;;18.89;90.17;101240.50;5007388;28;20038;-64
2022/06/26 00:27:07;;;;;;;10.05;9.02;;;;;;;18.87;90.14;101235.31;5008213;28;20400;-64
2022/06/26 00:29:33;;;;;;;10.75;9.30;;;;;;;18.91;89.94;101244.84;5015264;28;20087;-64
2022/06/26 00:32:00;;;;;;;10.20;9.10;;;;;;;18.87;90.44;101247.44;5009042;28;20124;-64
2022/06/26 00:34:25;;;;;;;14.38;9.20;;;;;;;18.83;89.71;101254.41;5013104;28;20049;-64
2022/06/26 00:36:51;;;;;;;9.70;8.80;;;;;;;18.82;89.74;101255.28;5018400;28;20021;-64
2022/06/26 00:39:16;;;;;;;10.07;9.00;;;;;;;18.80;90.42;101259.59;5012731;28;20048;-64
2022/06/26 00:41:41;;;;;;;10.88;9.00;;;;;;;18.82;90.52;101260.50;5006914;28;20045;-64
2022/06/26 00:44:19;;;;;;;12.55;9.15;;;;;;;18.84;89.84;101257.88;4995704;28;20033;-64
2022/06/26 00:46:45;;;;;;;11.65;9.00;;;;;;;18.80;89.80;101262.22;4989320;28;20037;-64
2022/06/26 00:49:11;;;;;;;11.30;9.20;;;;;;;18.77;90.61;101261.34;5016857;28;20036;-64
2022/06/26 00:51:40;;;;;;;11.15;8.98;;;;;;;18.78;90.61;101268.31;5009006;28;20033;-64
2022/06/26 00:54:07;;;;;;;;;;;;;;;18.99;88.33;101270.94;5012097;28;20049;-64
2022/06/26 00:56:34;;;;;;;12.73;9.65;;;;;;;18.76;90.03;101270.91;5012626;28;19913;-64
2022/06/26 00:59:00;;;;;;;10.52;9.50;;;;;;;18.78;90.82;101283.94;5013050;28;20057;-64
2022/06/26 01:01:26;;;;;;;10.50;9.50;;;;;;;18.77;90.87;101280.47;5011255;28;20109;-64
2022/06/26 01:03:52;;;;;;;11.68;10.32;;;;;;;18.76;90.34;101286.53;5008564;28;20133;-64
2022/06/26 01:06:17;;;;;;;11.32;10.20;;;;;;;18.79;90.12;101290.88;5014511;28;20144;-64
2022/06/26 01:08:43;;;;;;;10.65;9.55;;;;;;;18.72;90.73;101284.78;5010824;28;20187;-64
2022/06/26 01:11:18;;;;;;;10.77;9.68;;;;;;;18.73;89.81;101290.00;5013688;28;20021;-64
2022/06/26 01:13:45;;;;;;;10.90;9.50;;;;;;;18.72;90.68;101283.06;5018009;28;20403;-64
2022/06/26 01:16:13;;;;;;;12.20;9.52;;;;;;;18.74;90.25;101286.50;5013243;28;20033;-64
2022/06/26 01:18:39;;;;;;;10.65;9.57;;;;;;;18.70;90.84;101290.00;5011374;28;20026;-64
2022/06/26 01:21:05;;;;;;;10.68;9.57;;;;;;;18.69;89.55;101295.22;5008656;28;20033;-64
2022/06/26 01:23:30;;;;;;;10.50;9.45;;;;;;;18.66;90.07;101295.16;5014166;28;20057;-64
2022/06/26 01:25:55;;;;;;;11.90;9.68;;;;;;;18.63;90.73;101297.78;5009027;28;20030;-64
2022/06/26 01:28:21;;;;;;;11.95;9.82;;;;;;;18.63;91.01;101301.25;5013833;28;20029;-64
2022/06/26 01:30:46;;;;;;;11.00;9.90;;;;;;;18.63;90.33;101303.00;5018604;28;20045;-64
2022/06/26 01:33:12;;;;;;;11.43;10.27;;;;;;;18.65;90.56;101302.13;5005719;28;20089;-64
2022/06/26 01:35:37;;;;;;;12.00;10.43;;;;;;;18.64;90.88;101308.19;5010403;28;20034;-64
2022/06/26 01:38:14;;;;;;;13.05;11.50;;;;;;;18.66;90.35;101310.78;5010343;28;20564;-64
2022/06/26 01:40:40;;;;;;;13.82;11.98;;;;;;;18.56;90.47;101309.03;5010091;28;20484;-64
2022/06/26 01:43:06;;;;;;;15.57;12.40;;;;;;;18.57;90.45;101316.88;5010436;28;20018;-64
2022/06/26 01:45:32;;;;;;;17.25;14.35;;;;;;;18.57;89.47;101306.44;5013318;28;20539;-64
2022/06/26 01:47:57;;;;;;;17.55;15.57;;;;;;;18.52;89.60;101302.97;5010892;28;20141;-64
2022/06/26 01:50:23;;;;;;;16.17;14.32;;;;;;;18.53;90.23;101307.28;5009914;28;20030;-64
2022/06/26 01:52:48;;;;;;;18.02;15.25;;;;;;;18.54;88.87;101306.44;5012199;28;20034;-64
2022/06/26 01:55:14;;;;;;;18.17;16.17;;;;;;;18.49;89.37;101302.94;4997316;28;20040;-64
2022/06/26 01:57:39;;;;;;;18.48;15.90;;;;;;;18.52;89.19;101299.50;5010799;28;20033;-64
2022/06/26 02:00:06;;;;;;;18.15;16.13;;;;;;;18.46;89.15;101292.53;4995626;28;20116;-64
2022/06/26 02:02:32;;;;;;;18.88;16.17;;;;;;;18.46;89.05;101289.94;5006521;28;20499;-64
2022/06/26 02:04:58;;;;;;;18.45;16.30;;;;;;;18.46;88.97;101298.59;4990809;28;20038;-64
2022/06/26 02:07:25;;;;;;;18.52;16.60;;;;;;;18.40;89.48;101282.97;5011580;28;21052;-64
2022/06/26 02:15:18;;;;;;;19.27;17.20;;;;;;;18.36;88.17;101265.59;5015629;28;20045;-64
2022/06/26 02:17:43;;;;;;;20.15;17.92;;;;;;;18.36;88.79;101282.94;5013465;28;20022;-64
2022/06/26 02:20:10;;;;;;;20.15;17.92;;;;;;;18.34;88.39;101277.75;5013903;28;20084;-64
2022/06/26 02:22:35;;;;;;;22.20;18.23;;;;;;;18.34;88.95;101266.47;5008267;28;20032;-64
2022/06/26 02:25:01;;;;;;;19.98;17.75;;;;;;;18.28;88.59;101269.06;5011600;28;20034;-64
2022/06/26 02:27:26;;;;;;;22.15;18.67;;;;;;;18.32;88.67;101268.16;5013157;28;20033;-64
2022/06/26 02:29:51;;;;;;;22.48;19.13;;;;;;;18.25;88.50;101266.41;5008673;28;20026;-64
2022/06/26 02:32:17;;;;;;;21.65;18.65;;;;;;;18.32;89.15;101273.38;5015315;28;20038;-64
2022/06/26 02:34:42;;;;;;;24.40;18.95;;;;;;;18.26;88.41;101279.47;5010067;28;20468;-64
2022/06/26 02:37:08;;;;;;;25.00;19.55;;;;;;;18.26;88.49;101276.88;5011796;28;20441;-64
2022/06/26 02:39:33;;;;;;;24.00;19.75;;;;;;;18.27;88.71;101268.19;5011940;28;20037;-64
2022/06/26 02:41:58;;;;;;;25.75;19.13;;;;;;;18.23;89.32;101282.91;5018915;28;20452;-64
2022/06/26 02:44:24;;;;;;;22.73;20.13;;;;;;;18.22;88.78;101285.50;5012413;28;20091;-64
2022/06/26 02:46:49;;;;;;;25.45;21.10;;;;;;;18.22;88.65;101291.59;5009629;28;20022;-64
2022/06/26 02:49:14;;;;;;;24.25;19.95;;;;;;;18.21;88.86;101304.59;5009590;28;20038;-64
2022/06/26 02:51:40;;;;;;;25.38;20.35;;;;;;;18.21;88.63;101302.88;5011109;28;20026;-64
2022/06/26 02:54:05;;;;;;;24.90;20.85;;;;;;;18.17;88.67;101301.09;4996980;28;20705;-64
2022/06/26 02:56:31;;;;;;;26.08;21.10;;;;;;;18.18;88.37;101310.66;5008064;28;20045;-64
2022/06/26 02:58:56;;;;;;;25.23;20.85;;;;;;;18.10;87.70;101308.91;4990853;28;20481;-64
2022/06/26 03:01:22;;;;;;;26.13;21.73;;;;;;;18.07;87.65;101309.72;4991531;28;20034;-64
2022/06/26 03:03:47;;;;;;;23.90;19.88;;;;;;;17.98;87.34;101314.91;5009683;28;20058;-64
2022/06/26 03:06:12;;;;;;;21.20;16.77;;;;;;;18.01;86.93;101320.13;5012556;28;20388;-64
2022/06/26 03:08:38;;;;;;;21.15;16.17;;;;;;;17.93;86.40;101324.41;5012161;28;20037;-64
2022/06/26 03:11:03;;;;;;;19.58;15.80;;;;;;;17.91;85.92;101323.56;4991655;28;20395;-64
2022/06/26 03:13:28;;;;;;;21.95;15.35;;;;;;;17.87;86.45;101319.19;5013377;28;20026;-64
2022/06/26 03:15:54;;;;;;;20.45;14.55;;;;;;;17.86;85.80;101323.53;5010517;28;20033;-64
2022/06/26 03:18:19;;;;;;;19.17;14.85;;;;;;;17.81;86.42;101320.00;5008711;28;20034;-64
2022/06/26 03:20:45;;;;;;;19.40;15.07;;;;;;;17.83;85.66;101330.41;5015248;28;20124;-64
2022/06/26 03:23:10;;;;;;;22.20;14.95;;;;;;;17.75;86.25;101337.31;5012308;28;20116;-64
2022/06/26 03:25:36;;;;;;;19.23;15.40;;;;;;;17.68;86.83;101337.25;5007838;28;20084;-64
2022/06/26 03:28:01;;;;;;;20.13;15.00;;;;;;;17.68;86.98;101331.19;5008950;28;20096;-64
2022/06/26 03:30:27;;;;;;;18.80;14.73;;;;;;;17.70;87.02;101342.44;5009407;28;20037;-64
2022/06/26 03:32:52;;;;;;;17.50;14.75;;;;;;;17.68;86.12;101342.44;5011369;28;20121;-63
2022/06/26 03:35:18;;;;;;;18.65;13.65;;;;;;;17.61;85.88;101343.28;5014625;28;20370;-64
2022/06/26 03:37:43;;;;;;;19.50;13.70;;;;;;;17.62;86.63;101341.53;5014163;28;20028;-64
2022/06/26 03:40:10;;;;;;;15.70;12.60;;;;;;;17.61;86.05;101345.88;5008584;28;20030;-64
2022/06/26 03:42:36;;;;;;;17.30;13.30;;;;;;;17.67;85.48;101360.66;5013311;28;20033;-64
2022/06/26 03:45:02;;;;;;;18.23;12.77;;;;;;;17.57;86.41;101375.31;5015160;28;20068;-64
2022/06/26 03:47:27;;;;;;;16.65;12.20;;;;;;;17.57;85.16;101369.25;5015699;28;20057;-64
2022/06/26 03:49:53;;;;;;;15.75;12.52;;;;;;;17.58;85.48;101377.03;5015993;28;20518;-64
2022/06/26 03:52:20;;;;;;;15.98;12.68;;;;;;;17.54;86.22;101390.03;5008927;28;20412;-64
2022/06/26 03:54:46;;;;;;;17.95;11.63;;;;;;;17.51;86.14;101383.06;5012964;28;20030;-63
2022/06/26 03:57:11;;;;;;;16.25;11.15;;;;;;;17.45;86.29;101380.41;5013877;28;20053;-63
2022/06/26 03:59:37;;;;;;;13.75;10.88;;;;;;;17.47;85.54;101383.00;5013904;28;20391;-64
2022/06/26 04:02:03;;;;;;;14.35;10.80;;;;;;;17.37;85.93;101382.09;5012872;28;20121;-64
2022/06/26 04:04:28;;;;;;;13.20;10.18;;;;;;;17.36;85.79;101377.75;5011368;28;20049;-64
2022/06/26 04:06:54;;;;;;;14.68;10.18;;;;;;;17.34;86.34;101387.25;5015346;28;20025;-64
2022/06/26 04:09:19;;;;;;;14.52;10.13;;;;;;;17.34;86.35;101372.53;5012843;28;20064;-64
2022/06/26 04:11:45;;;;;;;21.13;10.93;;;;;;;17.28;86.02;101364.66;5012641;28;20469;-63
2022/06/26 04:14:10;;;;;;;13.80;9.82;;;;;;;17.35;85.93;101370.78;5012676;28;20022;-64
2022/06/26 04:16:36;;;;;;;11.88;8.82;;;;;;;17.27;85.97;101375.06;4992438;28;20026;-64
2022/06/26 04:19:02;;;;;;;12.98;9.13;;;;;;;17.24;85.90;101383.72;5011018;28;20038;-64
2022/06/26 04:21:27;;;;;;;13.38;8.82;;;;;;;17.26;86.05;101384.59;5018669;28;20038;-63
2022/06/26 04:23:52;;;;;;;12.38;8.75;;;;;;;17.29;86.08;101383.72;5015682;28;20724;-63
2022/06/26 04:26:18;;;;;;;13.90;8.30;;;;;;;17.21;85.75;101386.28;5011531;28;20042;-63
2022/06/26 04:28:43;;;;;;;11.65;8.60;;;;;;;17.21;85.73;101390.59;5013593;28;20038;-64
2022/06/26 04:31:09;;;;;;;12.18;8.13;;;;;;;17.23;86.30;101397.56;5015054;28;20043;-64
2022/06/26 04:33:34;;;;;;;13.63;8.50;;;;;;;17.25;86.51;101402.78;5017918;28;20044;-64
2022/06/26 04:35:59;;;;;;;14.52;8.50;;;;;;;17.26;85.91;101405.38;5015099;28;20025;-64
2022/06/26 04:38:25;;;;;;;14.05;8.95;;;;;;;17.18;86.17;101406.19;5014894;28;20100;-64
2022/06/26 04:40:50;;;;;;;13.25;8.48;;;;;;;17.27;85.94;101411.44;5008576;28;20033;-64
2022/06/26 04:43:16;;;;;;;12.70;8.57;;;;;;;17.15;86.74;101425.19;5012011;28;20382;-63
2022/06/26 04:45:42;;;;;;;11.43;8.68;;;;;;;17.14;86.47;101432.13;5011585;28;20037;-63
2022/06/26 04:48:08;;;;;;;11.48;8.82;;;;;;;17.16;86.74;101434.72;5016824;28;20026;-64
2022/06/26 04:50:33;;;;;;;11.57;7.97;;;;;;;17.17;86.13;101436.50;5012876;28;20038;-64
2022/06/26 04:52:59;;;;;;;11.23;7.90;;;;;;;17.13;86.55;101447.72;5011344;28;20030;-64
2022/06/26 04:55:24;;;;;;;13.80;8.02;;;;;;;17.23;87.51;101444.34;5011603;28;20034;-64
2022/06/26 04:57:50;;;;;;;13.23;8.60;;;;;;;17.31;87.87;101441.81;5012726;28;20092;-64
2022/06/26 05:00:16;;;;;;;14.68;8.77;;;;;;;17.26;86.71;101446.97;5010041;28;20046;-64
2022/06/26 05:02:41;;;;;;;12.07;8.10;;;;;;;17.34;87.44;101447.03;5013735;28;20052;-64
2022/06/26 05:05:07;;;;;;;14.52;8.35;;;;;;;17.32;86.90;101441.81;5011653;28;20392;-63
2022/06/26 05:07:33;;;;;;;15.52;7.53;;;;;;;17.32;86.42;101434.03;5016812;28;20606;-64
2022/06/26 05:09:58;;;;;;;11.77;7.80;;;;;;;17.28;85.81;101445.25;5011886;28;20037;-64
2022/06/26 05:12:25;;;;;;;11.90;6.72;;;;;;;17.37;86.20;101444.47;5009815;28;20106;-64
2022/06/26 05:14:51;;;;;;;10.50;7.28;;;;;;;17.39;85.85;101450.56;5012335;28;20124;-64
2022/06/26 05:17:16;;;;;;;13.15;7.25;;;;;;;17.40;86.38;101450.56;5010747;28;20120;-63
2022/06/26 05:19:42;;;;;;;13.25;7.35;;;;;;;17.43;85.57;101447.13;5009874;28;21794;-64
2022/06/26 05:22:07;;;;;;;11.77;7.15;;;;;;;17.42;85.71;101453.19;5009561;28;20040;-64
2022/06/26 05:24:33;;;;;;;11.63;7.10;;;;;;;17.44;85.85;101454.06;5009927;28;20065;-64
2022/06/26 05:26:58;;;;;;;10.52;7.38;;;;;;;17.47;85.74;101456.69;5010374;28;20756;-63
2022/06/26 05:29:25;;;;;;;9.95;7.00;;;;;;;17.40;86.24;101449.69;5013763;28;20029;-63
2022/06/26 05:31:51;;;;;;;11.57;7.22;;;;;;;17.48;85.77;101450.66;5009882;28;20033;-63
2022/06/26 05:34:17;;;;;;;10.63;6.95;;;;;;;17.51;85.69;101445.47;5011940;28;20473;-64
2022/06/26 05:36:42;;;;;;;12.48;6.60;;;;;;;17.60;86.64;101442.09;5006054;28;20057;-63
2022/06/26 05:39:08;;;;;;;13.10;7.18;;;;;;;17.62;84.99;101440.38;5010832;28;20037;-64
2022/06/26 05:41:34;;;;;;;12.40;6.78;;;;;;;17.68;84.75;101446.47;5013787;28;20085;-63
2022/06/26 05:43:59;;;;;;;11.15;7.10;;;;;;;17.77;85.01;101457.84;5011949;28;20034;-63
2022/06/26 05:46:25;;;;;;;11.57;6.90;;;;;;;17.75;84.46;101462.16;5009520;28;20061;-64
2022/06/26 05:48:50;;;;;;;11.10;6.72;;;;;;;17.76;84.67;101469.13;5017405;28;20049;-64
2022/06/26 05:51:15;;;;;;;10.48;6.72;;;;;;;17.80;83.44;101473.50;4996550;28;20037;-64
2022/06/26 05:53:41;;;;;;;9.32;6.65;;;;;;;17.83;83.89;101486.50;4995488;28;20091;-63
2022/06/26 05:56:06;;;;;;;9.13;7.18;;;;;;;17.78;85.62;101483.88;5012508;28;20426;-63
2022/06/26 05:58:32;;;;;;;11.45;7.25;;;;;;;17.80;85.08;101489.97;5011627;28;20038;-63
2022/06/26 06:00:57;;;;;;;11.13;7.22;;;;;;;17.80;84.07;101486.50;5011557;28;20053;-63
2022/06/26 06:03:23;;;;;;;11.15;7.03;;;;;;;17.82;84.61;101485.63;5010806;28;20038;-64
2022/06/26 06:05:48;;;;;;;11.63;8.00;;;;;;;17.86;84.76;101490.00;5010372;28;20487;-63
2022/06/26 06:08:13;;;;;;;14.65;7.53;;;;;;;17.88;84.63;101492.63;5016855;28;20037;-64
2022/06/26 06:10:39;;;;;;;10.90;6.55;;;;;;;17.92;84.94;101499.59;5008910;28;20034;-64
2022/06/26 06:13:04;;;;;;;12.02;7.13;;;;;;;18.00;84.43;101504.84;5013671;28;20113;-63
2022/06/26 06:15:30;;;;;;;10.45;7.18;;;;;;;18.07;84.51;101506.63;5008411;28;20465;-63
2022/06/26 06:17:55;;;;;;;12.40;7.15;;;;;;;18.14;82.94;101506.72;5009436;28;20527;-63
2022/06/26 06:20:25;;;;;;;9.90;6.35;;;;;;;18.19;82.78;101491.13;5009569;28;20029;-63
2022/06/26 06:23:02;;;;;;;9.50;6.70;;;;;;;18.28;82.89;101500.72;5004708;28;20030;-64
2022/06/26 06:25:27;;;;;;;11.27;6.68;;;;;;;18.32;81.93;101494.66;5009596;28;20129;-63
2022/06/26 06:27:53;;;;;;;10.65;6.70;;;;;;;18.43;81.69;101495.59;5006089;28;20560;-63
2022/06/26 06:30:19;;;;;;;13.85;6.93;;;;;;;18.53;83.01;101487.00;5012128;28;20109;-63
2022/06/26 06:32:45;;;;;;;12.50;6.53;;;;;;;18.55;81.91;101492.19;5008716;28;20041;-64
2022/06/26 06:35:13;;;;;;;10.95;6.38;;;;;;;18.51;80.92;101488.72;5013902;28;20087;-63
2022/06/26 06:37:39;;;;;;;12.95;6.32;;;;;;;18.49;79.96;101498.25;5008791;28;20033;-63
2022/06/26 06:40:05;;;;;;;11.02;5.72;;;;;;;18.52;80.98;101506.09;5010536;28;20046;-63
2022/06/26 06:42:30;;;;;;;12.60;6.53;;;;;;;18.51;81.09;101522.59;5008603;28;20060;-63
2022/06/26 06:44:56;;;;;;;10.43;6.43;;;;;;;18.54;82.72;101526.94;5012523;28;20029;-63
2022/06/26 06:47:21;;;;;;;11.82;6.68;;;;;;;18.52;81.03;101518.25;5007916;28;20460;-64
2022/06/26 06:49:46;;;;;;;10.95;6.30;;;;;;;18.55;81.57;101523.44;5009976;28;20083;-63
2022/06/26 06:52:12;;;;;;;12.88;6.55;;;;;;;18.52;82.03;101536.47;5008210;28;20056;-63
2022/06/26 06:54:38;;;;;;;9.88;5.82;;;;;;;18.44;80.46;101539.91;5007601;28;20029;-64
2022/06/26 06:57:03;;;;;;;16.23;6.28;;;;;;;18.46;81.45;101542.50;5009559;28;20029;-63
2022/06/26 06:59:29;;;;;;;12.70;6.20;;;;;;;18.42;81.94;101545.94;5008928;28;20034;-64
2022/06/26 07:01:54;;;;;;;11.88;6.03;;;;;;;18.48;81.62;101556.41;5007297;28;20033;-63
2022/06/26 07:04:20;;;;;;;10.45;5.78;;;;;;;18.49;81.32;101565.94;5007966;28;20037;-64
2022/06/26 07:06:46;;;;;;;11.60;6.90;;;;;;;18.48;81.33;101566.81;5008117;28;20026;-63
2022/06/26 07:09:12;;;;;;;11.13;6.15;;;;;;;18.57;82.03;101579.91;5009035;28;20160;-63
2022/06/26 07:11:38;;;;;;;11.13;6.10;;;;;;;18.51;81.16;101582.47;5006594;28;20026;-64
2022/06/26 07:14:04;;;;;;;12.43;6.60;;;;;;;18.56;80.78;101585.09;5008093;28;20099;-63
2022/06/26 07:16:29;;;;;;;13.93;6.70;;;;;;;18.62;80.71;101586.00;5007263;28;20389;-63
2022/06/26 07:18:55;;;;;;;11.23;6.38;;;;;;;18.68;80.41;101591.28;5002327;28;20041;-63
2022/06/26 07:21:20;;;;;;;12.70;6.38;;;;;;;18.73;80.51;101592.19;5000388;28;20480;-64
2022/06/26 07:23:46;;;;;;;13.13;6.53;;;;;;;18.74;80.03;101588.72;5004316;28;20034;-64
2022/06/26 07:26:11;;;;;;;12.75;6.75;;;;;;;18.76;79.26;101588.75;5004609;28;20545;-64
2022/06/26 07:28:37;;;;;;;10.32;6.00;;;;;;;18.80;79.64;101594.84;5005016;28;20030;-63
2022/06/26 07:31:03;;;;;;;10.15;5.63;;;;;;;18.86;79.67;101584.44;5000281;28;20042;-64
2022/06/26 07:36:12;;;;;;;10.25;6.00;;;;;;;18.92;79.66;101590.56;5007541;28;20039;-63
2022/06/26 07:38:38;;;;;;;10.43;5.90;;;;;;;18.92;79.03;101581.88;4989521;28;20033;-64
2022/06/26 07:41:04;;;;;;;10.02;5.35;;;;;;;18.94;79.22;101593.19;5004425;28;20475;-64
2022/06/26 07:43:29;;;;;;;11.32;5.72;;;;;;;18.92;78.77;101600.13;5009007;28;20038;-64
2022/06/26 07:45:56;;;;;;;8.82;5.57;;;;;;;18.87;78.55;101591.41;5009018;28;20064;-63
2022/06/26 07:48:22;;;;;;;11.55;5.95;;;;;;;18.91;79.00;101598.38;5009932;28;20021;-64
2022/06/26 07:50:47;;;;;;;11.55;5.80;;;;;;;18.92;80.46;101584.47;5011934;28;21030;-64
2022/06/26 07:53:13;;;;;;;13.45;5.40;;;;;;;18.92;78.36;101595.78;5010380;28;20038;-64
2022/06/26 07:55:38;;;;;;;7.97;5.32;;;;;;;18.91;77.65;101598.38;5011699;28;20042;-64
2022/06/26 07:58:04;;;;;;;9.93;5.50;;;;;;;18.93;79.25;101599.28;5011598;28;20034;-63
2022/06/26 08:00:29;;;;;;;11.57;5.32;;;;;;;18.97;79.75;101599.28;5009640;28;20041;-64
2022/06/26 08:02:55;;;;;;;8.77;5.05;;;;;;;19.01;79.95;101594.97;5012350;28;20469;-64
2022/06/26 08:05:20;;;;;;;9.75;4.70;;;;;;;18.97;78.09;101601.88;5008701;28;20493;-64
2022/06/26 08:07:45;;;;;;;9.38;4.95;;;;;;;18.98;77.64;101608.84;5008929;28;20033;-64
2022/06/26 08:10:12;;;;;;;10.27;5.20;;;;;;;18.96;78.22;101617.53;4993617;28;20034;-64
2022/06/26 08:12:37;;;;;;;9.43;4.95;;;;;;;18.93;76.72;101620.13;5010342;28;20058;-63
2022/06/26 08:15:04;;;;;;;9.60;5.07;;;;;;;18.90;76.72;101617.47;5009293;28;20076;-64
2022/06/26 08:17:29;;;;;;;7.72;4.30;;;;;;;18.91;77.13;101619.22;5007650;28;20041;-64
2022/06/26 08:19:54;;;;;;;7.63;4.30;;;;;;;18.95;77.31;101628.81;5000364;28;20061;-64
2022/06/26 08:22:20;;;;;;;9.52;4.82;;;;;;;18.92;77.82;101624.44;5007734;28;20044;-64
2022/06/26 08:24:45;;;;;;;11.50;4.72;;;;;;;19.00;78.12;101624.50;5011496;28;20029;-65
2022/06/26 08:27:11;;;;;;;10.88;5.30;;;;;;;18.98;78.17;101627.06;5010782;28;20056;-64
2022/06/26 08:29:38;;;;;;;5.72;4.30;;;;;;;18.98;76.88;101623.59;5018395;28;20057;-64
2022/06/26 08:32:04;;;;;;;6.93;4.28;;;;;;;18.88;76.72;101619.22;5013434;28;20067;-64
2022/06/26 08:34:30;;;;;;;10.35;4.50;;;;;;;18.86;76.80;101627.00;5012320;28;20476;-64
2022/06/26 08:36:55;;;;;;;10.10;4.53;;;;;;;18.87;77.29;101623.56;4995199;28;20076;-64
2022/06/26 08:39:22;;;;;;;7.88;4.68;;;;;;;18.84;77.38;101613.09;5016869;28;20134;-64
2022/06/26 08:41:48;;;;;;;11.02;4.53;;;;;;;18.86;76.69;101611.38;5012338;28;20101;-64
2022/06/26 08:44:14;;;;;;;7.32;3.70;;;;;;;18.91;79.03;101609.66;5013095;28;20034;-64
2022/06/26 08:46:43;;;;;;;8.80;4.28;;;;;;;18.88;78.53;101606.19;5014665;28;20053;-64
2022/06/26 08:49:14;;;;;;;6.35;4.28;;;;;;;18.91;77.33;101614.00;5012748;28;20021;-65
2022/06/26 08:51:42;;;;;;;7.80;4.00;;;;;;;18.92;77.04;101634.00;5008395;28;20046;-64
2022/06/26 08:54:09;;;;;;;4.90;3.95;;;;;;;18.92;77.33;101628.78;5015850;28;20066;-64
2022/06/26 08:56:36;;;;;;;6.15;4.22;;;;;;;18.93;77.48;101625.34;5011538;28;20040;-64
2022/06/26 08:59:02;;;;;;;8.25;4.18;;;;;;;18.91;77.30;101635.72;5017945;28;20472;-64
2022/06/26 09:01:27;;;;;;;8.30;4.28;;;;;;;18.93;77.93;101638.38;5014963;28;20046;-64
2022/06/26 09:03:53;;;;;;;7.13;4.25;;;;;;;18.94;78.56;101624.47;5016599;28;20060;-64
2022/06/26 09:06:18;;;;;;;7.38;4.18;;;;;;;18.98;77.98;101632.28;5013293;28;20160;-64
2022/06/26 09:08:48;;;;;;;8.00;4.32;;;;;;;18.95;77.44;101631.41;5013861;28;20425;-64
2022/06/26 09:11:15;;;;;;;8.07;4.00;;;;;;;18.95;77.34;101636.63;5014065;28;20042;-64
2022/06/26 09:13:42;;;;;;;8.20;4.03;;;;;;;18.94;75.79;101637.50;5010252;28;20026;-65
2022/06/26 09:16:09;;;;;;;6.50;4.00;;;;;;;18.95;77.11;101641.84;5011946;28;20026;-65
2022/06/26 09:18:37;;;;;;;7.18;4.00;;;;;;;18.93;76.60;101640.97;5010188;28;20042;-64
2022/06/26 09:21:04;;;;;;;7.57;3.50;;;;;;;18.94;75.78;101650.53;5010894;28;20080;-64
2022/06/26 09:23:31;;;;;;;7.95;3.85;;;;;;;18.87;73.54;101635.69;5016330;28;20037;-64
2022/06/26 09:25:56;;;;;;;6.95;3.70;;;;;;;18.89;75.01;101626.16;5017512;28;20026;-64
2022/06/26 09:28:23;;;;;;;6.65;3.90;;;;;;;18.91;75.72;101624.44;5016928;28;20449;-64
2022/06/26 09:30:55;;;;;;;7.05;3.80;;;;;;;18.89;76.33;101634.84;5017528;28;20673;-64
2022/06/26 09:33:22;;;;;;;8.05;4.07;;;;;;;18.94;75.75;101637.50;5014465;28;20026;-64
2022/06/26 09:35:48;;;;;;;6.18;4.40;;;;;;;18.94;77.08;101635.75;5012229;28;20026;-64
2022/06/26 09:38:25;;;;;;;5.60;3.95;;;;;;;19.04;76.15;101641.88;5015199;28;20056;-64
2022/06/26 09:40:57;;;;;;;7.90;4.07;;;;;;;19.05;76.68;101633.22;5008342;28;20022;-64
2022/06/26 09:43:29;;;;;;;9.13;4.00;;;;;;;19.08;75.99;101633.22;5013792;28;20029;-64
2022/06/26 09:45:55;;;;;;;6.47;4.25;;;;;;;19.07;76.57;101626.28;5012189;28;20042;-64
2022/06/26 09:48:23;;;;;;;7.35;3.95;;;;;;;19.08;77.36;101638.44;5015708;28;20033;-64
2022/06/26 09:50:49;;;;;;;9.23;4.35;;;;;;;19.07;75.62;101636.69;5013090;28;20040;-64
2022/06/26 09:53:15;;;;;;;7.85;4.40;;;;;;;19.08;74.33;101633.22;5011014;28;20026;-64
2022/06/26 09:55:41;;;;;;;7.20;4.53;;;;;;;19.09;75.95;101644.53;5010441;28;20034;-65
2022/06/26 09:58:08;;;;;;;9.10;5.20;;;;;;;19.06;76.26;101641.91;4990110;28;20456;-64
2022/06/26 10:00:35;;;;;;;10.73;4.68;;;;;;;19.12;77.37;101644.56;5013620;28;20034;-64
2022/06/26 10:08:32;;;;;;;6.30;4.90;;;;;;;19.15;76.03;101655.84;5009812;28;20044;-64
2022/06/26 10:10:59;;;;;;;9.13;4.53;;;;;;;19.21;75.50;101655.88;5004690;28;20026;-64
2022/06/26 10:13:25;;;;;;;5.85;4.00;;;;;;;19.23;75.10;101661.09;5007583;28;20062;-64
2022/06/26 10:16:14;;;;;;;5.28;3.70;;;;;;;19.32;76.02;101660.28;5013686;28;20834;-65
2022/06/26 10:18:58;;;;;;;;;;;;;;;19.46;75.36;101663.81;5010557;28;20048;-65
2022/06/26 10:21:23;;;;;;;5.20;4.00;;;;;;;19.25;73.67;101667.22;5009985;28;19913;-64
2022/06/26 10:23:49;;;;;;;7.10;4.30;;;;;;;19.32;74.20;101673.31;5013455;28;20084;-65
2022/06/26 10:26:20;;;;;;;6.95;3.67;;;;;;;19.33;75.01;101675.94;5013284;28;20080;-64
2022/06/26 10:28:56;;;;;;;6.13;3.83;;;;;;;19.38;74.81;101681.19;5007040;28;20037;-64
2022/06/26 10:31:22;;;;;;;7.60;3.75;;;;;;;19.40;75.73;101682.03;5007238;28;20057;-65
2022/06/26 10:33:48;;;;;;;9.68;3.53;;;;;;;19.47;74.56;101670.78;5010850;28;20034;-64
2022/06/26 10:36:21;;;;;;;5.10;2.92;;;;;;;19.48;72.30;101670.81;5012520;28;20037;-65
2022/06/26 10:38:47;;;;;;;4.07;2.40;;;;;;;19.49;70.79;101675.16;5011190;28;20037;-64
2022/06/26 10:44:01;;;;;;;3.97;1.85;;;;;;;19.52;68.17;101675.16;5009062;28;20100;-64
2022/06/26 10:46:58;;;;;;;5.15;1.52;;;;;;;19.54;67.72;101677.78;5008055;28;20026;-64
2022/06/26 10:49:23;;;;;;;4.45;1.80;;;;;;;19.56;68.59;101669.09;5007470;28;20037;-65
2022/06/26 10:51:49;;;;;;;7.95;1.90;;;;;;;19.56;69.99;101668.22;5006258;28;20034;-65
2022/06/26 10:54:29;;;;;;;6.38;1.95;;;;;;;19.71;71.39;101665.69;5009260;28;20391;-64
2022/06/26 10:57:15;;;;;;;6.55;2.00;;;;;;;19.86;70.83;101672.69;5009276;28;20084;-65
2022/06/26 10:59:43;;;;;;;5.03;2.08;;;;;;;19.87;68.33;101670.97;5012428;28;20120;-65
2022/06/26 11:02:12;;;;;;;4.43;1.75;;;;;;;19.90;68.77;101673.56;5006443;28;20030;-64
2022/06/26 11:04:48;;;;;;;3.78;1.70;;;;;;;20.00;69.78;101672.72;5009201;28;20045;-65
2022/06/26 11:07:15;;;;;;;6.10;2.05;;;;;;;20.02;68.72;101678.81;4990112;28;20034;-65
2022/06/26 11:09:40;;;;;;;4.85;2.30;;;;;;;20.04;68.06;101679.69;5005350;28;20496;-65
2022/06/26 11:12:06;;;;;;;4.80;2.17;;;;;;;20.08;68.36;101679.72;5013544;28;20036;-65
2022/06/26 11:14:31;;;;;;;5.00;2.47;;;;;;;20.12;68.25;101677.97;4985433;28;20391;-64
2022/06/26 11:16:57;;;;;;;4.95;1.88;;;;;;;20.16;68.83;101673.63;5006514;28;20486;-65
2022/06/26 11:19:30;;;;;;;4.82;2.08;;;;;;;20.20;66.18;101668.38;5008386;28;20037;-65
2022/06/26 11:22:06;;;;;;;5.25;2.30;;;;;;;20.26;67.48;101660.59;4991901;28;20050;-65
2022/06/26 11:24:32;;;;;;;4.97;2.20;;;;;;;20.25;65.49;101657.97;5007811;28;20120;-65
2022/06/26 11:26:57;;;;;;;5.57;2.28;;;;;;;20.27;65.89;101658.84;5007867;28;20037;-65
2022/06/26 11:29:23;;;;;;;7.20;2.47;;;;;;;20.32;67.12;101652.75;5013191;28;20034;-65
2022/06/26 11:31:50;;;;;;;6.32;2.40;;;;;;;20.36;67.16;101659.72;5007896;28;20034;-64